sensor_id;sensor_type;location;lat;lon;timestamp;P1;durP1;ratioP1;P2;durP2;ratioP2
28834;SDS011;15969;51.536;11.884;2023-01-26T00:00:54;12.57;;;7.77;;
28834;SDS011;15969;51.536;11.884;2023-01-26T00:03:19;13.77;;;9.23;;
28834;SDS011;15969;51.536;11.884;2023-01-26T00:05:46;12.00;;;7.47;;
28834;SDS011;15969;51.536;11.884;2023-01-26T00:08:12;13.60;;;8.67;;
28834;SDS011;15969;51.536;11.884;2023-01-26T00:10:38;11.63;;;7.93;;
28834;SDS011;15969;51.536;11.884;2023-01-26T00:13:06;12.23;;;9.00;;
28834;SDS011;15969;51.536;11.884;2023-01-26T00:15:34;12.67;;;9.13;;
28834;SDS011;15969;51.536;11.884;2023-01-26T00:18:00;13.20;;;8.30;;
28834;SDS011;15969;51.536;11.884;2023-01-26T00:20:27;13.20;;;8.97;;
28834;SDS011;15969;51.536;11.884;2023-01-26T00:22:54;13.90;;;8.50;;
28834;SDS011;15969;51.536;11.884;2023-01-26T00:25:19;12.97;;;8.47;;
28834;SDS011;15969;51.536;11.884;2023-01-26T00:27:45;11.97;;;8.53;;
28834;SDS011;15969;51.536;11.884;2023-01-26T00:30:11;11.13;;;7.40;;
28834;SDS011;15969;51.536;11.884;2023-01-26T00:32:37;12.60;;;8.27;;
28834;SDS011;15969;51.536;11.884;2023-01-26T00:35:03;11.47;;;7.23;;
28834;SDS011;15969;51.536;11.884;2023-01-26T00:37:30;12.90;;;8.63;;
28834;SDS011;15969;51.536;11.884;2023-01-26T00:39:56;13.23;;;8.77;;
28834;SDS011;15969;51.536;11.884;2023-01-26T00:42:22;12.57;;;8.03;;
28834;SDS011;15969;51.536;11.884;2023-01-26T00:44:48;14.13;;;9.50;;
28834;SDS011;15969;51.536;11.884;2023-01-26T00:47:15;13.00;;;8.20;;
28834;SDS011;15969;51.536;11.884;2023-01-26T00:49:42;14.23;;;8.47;;
28834;SDS011;15969;51.536;11.884;2023-01-26T00:52:09;13.37;;;8.67;;
28834;SDS011;15969;51.536;11.884;2023-01-26T00:54:36;12.93;;;7.77;;
28834;SDS011;15969;51.536;11.884;2023-01-26T00:57:02;14.00;;;8.43;;
28834;SDS011;15969;51.536;11.884;2023-01-26T00:59:27;15.83;;;9.10;;
28834;SDS011;15969;51.536;11.884;2023-01-26T01:01:56;12.07;;;8.03;;
28834;SDS011;15969;51.536;11.884;2023-01-26T01:04:22;12.43;;;8.33;;
28834;SDS011;15969;51.536;11.884;2023-01-26T01:06:49;13.00;;;8.03;;
28834;SDS011;15969;51.536;11.884;2023-01-26T01:09:15;13.10;;;8.13;;
28834;SDS011;15969;51.536;11.884;2023-01-26T01:11:40;12.93;;;8.10;;
28834;SDS011;15969;51.536;11.884;2023-01-26T01:14:07;12.63;;;9.10;;
28834;SDS011;15969;51.536;11.884;2023-01-26T01:16:34;11.20;;;8.47;;
28834;SDS011;15969;51.536;11.884;2023-01-26T01:18:59;13.47;;;8.90;;
28834;SDS011;15969;51.536;11.884;2023-01-26T01:21:25;14.07;;;9.40;;
28834;SDS011;15969;51.536;11.884;2023-01-26T01:23:51;12.17;;;8.70;;
28834;SDS011;15969;51.536;11.884;2023-01-26T01:26:17;12.53;;;8.83;;
28834;SDS011;15969;51.536;11.884;2023-01-26T01:28:43;11.87;;;8.53;;
28834;SDS011;15969;51.536;11.884;2023-01-26T01:31:10;12.70;;;9.27;;
28834;SDS011;15969;51.536;11.884;2023-01-26T01:33:40;13.90;;;9.33;;
28834;SDS011;15969;51.536;11.884;2023-01-26T01:36:08;16.00;;;9.40;;
28834;SDS011;15969;51.536;11.884;2023-01-26T01:38:38;13.80;;;8.60;;
28834;SDS011;15969;51.536;11.884;2023-01-26T01:41:04;13.20;;;9.10;;
28834;SDS011;15969;51.536;11.884;2023-01-26T01:43:30;14.30;;;9.50;;
28834;SDS011;15969;51.536;11.884;2023-01-26T01:45:56;13.03;;;9.00;;
28834;SDS011;15969;51.536;11.884;2023-01-26T01:51:29;12.40;;;8.83;;
28834;SDS011;15969;51.536;11.884;2023-01-26T01:54:04;13.70;;;9.33;;
28834;SDS011;15969;51.536;11.884;2023-01-26T01:56:33;11.90;;;8.17;;
28834;SDS011;15969;51.536;11.884;2023-01-26T01:59:02;14.53;;;9.30;;
28834;SDS011;15969;51.536;11.884;2023-01-26T02:01:30;15.53;;;8.87;;
28834;SDS011;15969;51.536;11.884;2023-01-26T02:03:58;12.90;;;8.17;;
28834;SDS011;15969;51.536;11.884;2023-01-26T02:06:38;15.83;;;8.63;;
28834;SDS011;15969;51.536;11.884;2023-01-26T02:09:11;13.87;;;8.97;;
28834;SDS011;15969;51.536;11.884;2023-01-26T02:11:58;12.43;;;8.47;;
28834;SDS011;15969;51.536;11.884;2023-01-26T02:14:26;12.43;;;9.33;;
28834;SDS011;15969;51.536;11.884;2023-01-26T02:16:53;15.20;;;9.77;;
28834;SDS011;15969;51.536;11.884;2023-01-26T02:19:22;13.67;;;8.93;;
28834;SDS011;15969;51.536;11.884;2023-01-26T02:22:30;13.17;;;8.77;;
28834;SDS011;15969;51.536;11.884;2023-01-26T02:25:41;13.93;;;9.07;;
28834;SDS011;15969;51.536;11.884;2023-01-26T02:28:17;13.80;;;8.90;;
28834;SDS011;15969;51.536;11.884;2023-01-26T02:30:48;14.37;;;8.97;;
28834;SDS011;15969;51.536;11.884;2023-01-26T02:33:18;14.67;;;9.07;;
28834;SDS011;15969;51.536;11.884;2023-01-26T02:35:52;13.73;;;8.40;;
28834;SDS011;15969;51.536;11.884;2023-01-26T02:38:19;14.70;;;8.53;;
28834;SDS011;15969;51.536;11.884;2023-01-26T02:43:59;14.07;;;8.80;;
28834;SDS011;15969;51.536;11.884;2023-01-26T02:46:26;12.57;;;8.27;;
28834;SDS011;15969;51.536;11.884;2023-01-26T02:48:51;13.33;;;8.70;;
28834;SDS011;15969;51.536;11.884;2023-01-26T02:51:36;16.00;;;8.87;;
28834;SDS011;15969;51.536;11.884;2023-01-26T02:54:01;14.03;;;9.07;;
28834;SDS011;15969;51.536;11.884;2023-01-26T02:56:27;13.73;;;7.97;;
28834;SDS011;15969;51.536;11.884;2023-01-26T02:58:53;12.63;;;8.27;;
28834;SDS011;15969;51.536;11.884;2023-01-26T03:01:18;12.37;;;8.87;;
28834;SDS011;15969;51.536;11.884;2023-01-26T03:03:44;14.77;;;8.57;;
28834;SDS011;15969;51.536;11.884;2023-01-26T03:06:10;12.70;;;8.90;;
28834;SDS011;15969;51.536;11.884;2023-01-26T03:08:37;12.60;;;8.60;;
28834;SDS011;15969;51.536;11.884;2023-01-26T03:11:03;12.77;;;9.07;;
28834;SDS011;15969;51.536;11.884;2023-01-26T03:13:31;13.70;;;8.37;;
28834;SDS011;15969;51.536;11.884;2023-01-26T03:15:56;13.37;;;8.70;;
28834;SDS011;15969;51.536;11.884;2023-01-26T03:18:30;13.33;;;9.40;;
28834;SDS011;15969;51.536;11.884;2023-01-26T03:21:16;16.27;;;9.67;;
28834;SDS011;15969;51.536;11.884;2023-01-26T03:24:00;12.97;;;8.93;;
28834;SDS011;15969;51.536;11.884;2023-01-26T03:26:45;14.13;;;9.60;;
28834;SDS011;15969;51.536;11.884;2023-01-26T03:29:29;16.77;;;9.57;;
28834;SDS011;15969;51.536;11.884;2023-01-26T03:31:56;14.03;;;8.60;;
28834;SDS011;15969;51.536;11.884;2023-01-26T03:34:23;14.47;;;9.90;;
28834;SDS011;15969;51.536;11.884;2023-01-26T03:36:49;14.70;;;9.33;;
28834;SDS011;15969;51.536;11.884;2023-01-26T03:39:15;14.33;;;9.43;;
28834;SDS011;15969;51.536;11.884;2023-01-26T03:41:59;15.20;;;9.23;;
28834;SDS011;15969;51.536;11.884;2023-01-26T03:44:44;13.30;;;8.40;;
28834;SDS011;15969;51.536;11.884;2023-01-26T03:47:32;14.87;;;8.73;;
28834;SDS011;15969;51.536;11.884;2023-01-26T03:50:17;13.87;;;9.07;;
28834;SDS011;15969;51.536;11.884;2023-01-26T03:53:02;12.80;;;8.90;;
28834;SDS011;15969;51.536;11.884;2023-01-26T03:55:46;15.87;;;9.00;;
28834;SDS011;15969;51.536;11.884;2023-01-26T03:58:30;11.70;;;8.03;;
28834;SDS011;15969;51.536;11.884;2023-01-26T04:00:56;11.87;;;7.97;;
28834;SDS011;15969;51.536;11.884;2023-01-26T04:03:22;13.17;;;8.00;;
28834;SDS011;15969;51.536;11.884;2023-01-26T04:06:06;11.40;;;7.63;;
28834;SDS011;15969;51.536;11.884;2023-01-26T04:08:50;13.10;;;8.77;;
28834;SDS011;15969;51.536;11.884;2023-01-26T04:11:16;12.63;;;7.77;;
28834;SDS011;15969;51.536;11.884;2023-01-26T04:13:41;12.27;;;8.60;;
28834;SDS011;15969;51.536;11.884;2023-01-26T04:16:25;11.87;;;8.70;;
28834;SDS011;15969;51.536;11.884;2023-01-26T04:19:09;14.13;;;8.50;;
28834;SDS011;15969;51.536;11.884;2023-01-26T04:21:54;11.97;;;8.07;;
28834;SDS011;15969;51.536;11.884;2023-01-26T04:24:20;11.50;;;7.90;;
28834;SDS011;15969;51.536;11.884;2023-01-26T04:26:46;12.63;;;7.77;;
28834;SDS011;15969;51.536;11.884;2023-01-26T04:29:12;12.47;;;7.97;;
28834;SDS011;15969;51.536;11.884;2023-01-26T04:31:40;10.03;;;7.17;;
28834;SDS011;15969;51.536;11.884;2023-01-26T04:34:11;9.97;;;6.40;;
28834;SDS011;15969;51.536;11.884;2023-01-26T04:36:39;8.97;;;6.03;;
28834;SDS011;15969;51.536;11.884;2023-01-26T04:39:06;7.93;;;5.83;;
28834;SDS011;15969;51.536;11.884;2023-01-26T04:41:33;9.03;;;5.80;;
28834;SDS011;15969;51.536;11.884;2023-01-26T04:43:59;10.43;;;6.70;;
28834;SDS011;15969;51.536;11.884;2023-01-26T04:46:25;9.63;;;6.13;;
28834;SDS011;15969;51.536;11.884;2023-01-26T04:48:50;9.20;;;6.17;;
28834;SDS011;15969;51.536;11.884;2023-01-26T04:51:17;10.23;;;6.87;;
28834;SDS011;15969;51.536;11.884;2023-01-26T04:53:45;8.23;;;5.80;;
28834;SDS011;15969;51.536;11.884;2023-01-26T04:58:46;7.07;;;5.10;;
28834;SDS011;15969;51.536;11.884;2023-01-26T05:01:12;8.30;;;5.60;;
28834;SDS011;15969;51.536;11.884;2023-01-26T05:03:38;7.87;;;5.17;;
28834;SDS011;15969;51.536;11.884;2023-01-26T05:06:04;8.53;;;5.77;;
28834;SDS011;15969;51.536;11.884;2023-01-26T05:08:30;9.20;;;6.10;;
28834;SDS011;15969;51.536;11.884;2023-01-26T05:10:56;7.50;;;5.40;;
28834;SDS011;15969;51.536;11.884;2023-01-26T05:13:22;9.00;;;5.90;;
28834;SDS011;15969;51.536;11.884;2023-01-26T05:15:48;8.03;;;5.83;;
28834;SDS011;15969;51.536;11.884;2023-01-26T05:18:13;8.20;;;5.50;;
28834;SDS011;15969;51.536;11.884;2023-01-26T05:20:39;8.83;;;6.00;;
28834;SDS011;15969;51.536;11.884;2023-01-26T05:23:05;8.43;;;6.03;;
28834;SDS011;15969;51.536;11.884;2023-01-26T05:25:30;8.03;;;5.93;;
28834;SDS011;15969;51.536;11.884;2023-01-26T05:27:56;7.60;;;5.80;;
28834;SDS011;15969;51.536;11.884;2023-01-26T05:30:22;7.93;;;5.93;;
28834;SDS011;15969;51.536;11.884;2023-01-26T05:32:47;9.67;;;6.70;;
28834;SDS011;15969;51.536;11.884;2023-01-26T05:35:13;11.27;;;6.53;;
28834;SDS011;15969;51.536;11.884;2023-01-26T05:37:39;10.93;;;6.43;;
28834;SDS011;15969;51.536;11.884;2023-01-26T05:40:06;8.57;;;6.30;;
28834;SDS011;15969;51.536;11.884;2023-01-26T05:42:36;9.10;;;6.30;;
28834;SDS011;15969;51.536;11.884;2023-01-26T05:45:03;10.57;;;6.83;;
28834;SDS011;15969;51.536;11.884;2023-01-26T05:47:30;11.80;;;8.00;;
28834;SDS011;15969;51.536;11.884;2023-01-26T05:49:55;10.07;;;7.13;;
28834;SDS011;15969;51.536;11.884;2023-01-26T05:52:21;10.47;;;7.40;;
28834;SDS011;15969;51.536;11.884;2023-01-26T05:54:47;10.43;;;6.77;;
28834;SDS011;15969;51.536;11.884;2023-01-26T05:57:12;13.83;;;8.17;;
28834;SDS011;15969;51.536;11.884;2023-01-26T05:59:40;10.80;;;7.40;;
28834;SDS011;15969;51.536;11.884;2023-01-26T06:02:06;10.73;;;6.70;;
28834;SDS011;15969;51.536;11.884;2023-01-26T06:04:34;9.90;;;5.97;;
28834;SDS011;15969;51.536;11.884;2023-01-26T06:06:59;8.73;;;6.87;;
28834;SDS011;15969;51.536;11.884;2023-01-26T06:09:25;10.37;;;7.13;;
28834;SDS011;15969;51.536;11.884;2023-01-26T06:11:51;9.30;;;6.60;;
28834;SDS011;15969;51.536;11.884;2023-01-26T06:14:16;8.77;;;6.63;;
28834;SDS011;15969;51.536;11.884;2023-01-26T06:16:42;10.30;;;6.73;;
28834;SDS011;15969;51.536;11.884;2023-01-26T06:19:08;10.20;;;7.23;;
28834;SDS011;15969;51.536;11.884;2023-01-26T06:21:34;10.07;;;6.77;;
28834;SDS011;15969;51.536;11.884;2023-01-26T06:24:00;9.73;;;6.30;;
28834;SDS011;15969;51.536;11.884;2023-01-26T06:26:26;10.13;;;6.70;;
28834;SDS011;15969;51.536;11.884;2023-01-26T06:28:52;10.20;;;6.13;;
28834;SDS011;15969;51.536;11.884;2023-01-26T06:31:18;9.40;;;6.47;;
28834;SDS011;15969;51.536;11.884;2023-01-26T06:33:45;9.40;;;6.80;;
28834;SDS011;15969;51.536;11.884;2023-01-26T06:36:11;8.37;;;5.73;;
28834;SDS011;15969;51.536;11.884;2023-01-26T06:38:43;9.00;;;6.13;;
28834;SDS011;15969;51.536;11.884;2023-01-26T06:41:10;9.93;;;5.90;;
28834;SDS011;15969;51.536;11.884;2023-01-26T06:43:36;7.90;;;6.20;;
28834;SDS011;15969;51.536;11.884;2023-01-26T06:46:02;8.43;;;5.97;;
28834;SDS011;15969;51.536;11.884;2023-01-26T06:48:30;7.27;;;5.30;;
28834;SDS011;15969;51.536;11.884;2023-01-26T06:53:42;9.07;;;5.63;;
28834;SDS011;15969;51.536;11.884;2023-01-26T06:56:18;9.00;;;6.27;;
28834;SDS011;15969;51.536;11.884;2023-01-26T06:58:45;9.00;;;5.90;;
28834;SDS011;15969;51.536;11.884;2023-01-26T07:01:13;8.50;;;6.23;;
28834;SDS011;15969;51.536;11.884;2023-01-26T07:03:43;7.77;;;6.20;;
28834;SDS011;15969;51.536;11.884;2023-01-26T07:06:09;8.10;;;5.83;;
28834;SDS011;15969;51.536;11.884;2023-01-26T07:08:37;8.30;;;6.00;;
28834;SDS011;15969;51.536;11.884;2023-01-26T07:11:04;8.53;;;6.40;;
28834;SDS011;15969;51.536;11.884;2023-01-26T07:13:30;8.60;;;6.13;;
28834;SDS011;15969;51.536;11.884;2023-01-26T07:16:02;8.80;;;5.60;;
28834;SDS011;15969;51.536;11.884;2023-01-26T07:18:30;9.53;;;6.50;;
28834;SDS011;15969;51.536;11.884;2023-01-26T07:20:59;10.07;;;6.20;;
28834;SDS011;15969;51.536;11.884;2023-01-26T07:23:30;9.67;;;6.47;;
28834;SDS011;15969;51.536;11.884;2023-01-26T07:25:56;8.67;;;6.30;;
28834;SDS011;15969;51.536;11.884;2023-01-26T07:28:22;10.70;;;6.87;;
28834;SDS011;15969;51.536;11.884;2023-01-26T07:30:49;11.40;;;7.50;;
28834;SDS011;15969;51.536;11.884;2023-01-26T07:33:16;8.97;;;7.00;;
28834;SDS011;15969;51.536;11.884;2023-01-26T07:35:42;8.87;;;6.53;;
28834;SDS011;15969;51.536;11.884;2023-01-26T07:38:07;9.33;;;6.73;;
28834;SDS011;15969;51.536;11.884;2023-01-26T07:40:33;10.17;;;7.20;;
28834;SDS011;15969;51.536;11.884;2023-01-26T07:42:59;10.93;;;7.37;;
28834;SDS011;15969;51.536;11.884;2023-01-26T07:45:28;10.03;;;6.67;;
28834;SDS011;15969;51.536;11.884;2023-01-26T07:47:54;11.13;;;6.40;;
28834;SDS011;15969;51.536;11.884;2023-01-26T07:50:20;9.10;;;6.07;;
28834;SDS011;15969;51.536;11.884;2023-01-26T07:52:46;10.73;;;7.17;;
28834;SDS011;15969;51.536;11.884;2023-01-26T07:55:12;8.50;;;6.00;;
28834;SDS011;15969;51.536;11.884;2023-01-26T07:57:39;9.57;;;7.07;;
28834;SDS011;15969;51.536;11.884;2023-01-26T08:00:05;8.77;;;6.53;;
28834;SDS011;15969;51.536;11.884;2023-01-26T08:02:32;10.97;;;7.77;;
28834;SDS011;15969;51.536;11.884;2023-01-26T08:04:57;12.40;;;8.17;;
28834;SDS011;15969;51.536;11.884;2023-01-26T08:07:24;12.17;;;7.67;;
28834;SDS011;15969;51.536;11.884;2023-01-26T08:09:50;15.10;;;10.33;;
28834;SDS011;15969;51.536;11.884;2023-01-26T08:12:16;14.87;;;10.97;;
28834;SDS011;15969;51.536;11.884;2023-01-26T08:14:42;16.70;;;11.60;;
28834;SDS011;15969;51.536;11.884;2023-01-26T08:17:07;17.77;;;11.70;;
28834;SDS011;15969;51.536;11.884;2023-01-26T08:19:33;15.87;;;10.77;;
28834;SDS011;15969;51.536;11.884;2023-01-26T08:21:59;15.10;;;9.30;;
28834;SDS011;15969;51.536;11.884;2023-01-26T08:24:24;13.23;;;10.23;;
28834;SDS011;15969;51.536;11.884;2023-01-26T08:26:51;13.10;;;9.23;;
28834;SDS011;15969;51.536;11.884;2023-01-26T08:29:18;13.77;;;10.07;;
28834;SDS011;15969;51.536;11.884;2023-01-26T08:31:44;12.37;;;8.93;;
28834;SDS011;15969;51.536;11.884;2023-01-26T08:34:10;12.47;;;9.23;;
28834;SDS011;15969;51.536;11.884;2023-01-26T08:36:37;12.73;;;8.60;;
28834;SDS011;15969;51.536;11.884;2023-01-26T08:39:03;13.57;;;9.27;;
28834;SDS011;15969;51.536;11.884;2023-01-26T08:41:29;14.23;;;9.43;;
28834;SDS011;15969;51.536;11.884;2023-01-26T08:43:55;16.97;;;10.57;;
28834;SDS011;15969;51.536;11.884;2023-01-26T08:46:23;14.37;;;9.83;;
28834;SDS011;15969;51.536;11.884;2023-01-26T08:48:49;14.97;;;9.87;;
28834;SDS011;15969;51.536;11.884;2023-01-26T08:51:15;12.70;;;9.77;;
28834;SDS011;15969;51.536;11.884;2023-01-26T08:53:41;12.43;;;9.23;;
28834;SDS011;15969;51.536;11.884;2023-01-26T08:56:07;14.90;;;9.27;;
28834;SDS011;15969;51.536;11.884;2023-01-26T08:58:36;12.20;;;9.03;;
28834;SDS011;15969;51.536;11.884;2023-01-26T09:01:03;13.20;;;8.93;;
28834;SDS011;15969;51.536;11.884;2023-01-26T09:03:30;13.13;;;9.73;;
28834;SDS011;15969;51.536;11.884;2023-01-26T09:05:57;13.20;;;8.97;;
28834;SDS011;15969;51.536;11.884;2023-01-26T09:08:25;11.70;;;8.17;;
28834;SDS011;15969;51.536;11.884;2023-01-26T09:10:51;12.93;;;8.90;;
28834;SDS011;15969;51.536;11.884;2023-01-26T09:13:16;10.87;;;7.90;;
28834;SDS011;15969;51.536;11.884;2023-01-26T09:15:42;10.87;;;8.23;;
28834;SDS011;15969;51.536;11.884;2023-01-26T09:18:08;10.73;;;8.20;;
28834;SDS011;15969;51.536;11.884;2023-01-26T09:20:36;10.17;;;8.63;;
28834;SDS011;15969;51.536;11.884;2023-01-26T09:23:02;12.40;;;8.67;;
28834;SDS011;15969;51.536;11.884;2023-01-26T09:25:28;13.23;;;8.63;;
28834;SDS011;15969;51.536;11.884;2023-01-26T09:27:54;12.73;;;9.93;;
28834;SDS011;15969;51.536;11.884;2023-01-26T09:30:19;13.00;;;9.43;;
28834;SDS011;15969;51.536;11.884;2023-01-26T09:32:45;13.40;;;9.37;;
28834;SDS011;15969;51.536;11.884;2023-01-26T09:35:11;18.40;;;10.73;;
28834;SDS011;15969;51.536;11.884;2023-01-26T09:37:37;18.27;;;11.97;;
28834;SDS011;15969;51.536;11.884;2023-01-26T09:40:03;16.43;;;11.57;;
28834;SDS011;15969;51.536;11.884;2023-01-26T09:50:25;19.33;;;12.57;;
28834;SDS011;15969;51.536;11.884;2023-01-26T09:52:57;18.90;;;12.03;;
28834;SDS011;15969;51.536;11.884;2023-01-26T09:55:28;23.43;;;13.30;;
28834;SDS011;15969;51.536;11.884;2023-01-26T09:58:02;32.53;;;19.00;;
28834;SDS011;15969;51.536;11.884;2023-01-26T10:00:57;31.00;;;18.23;;
28834;SDS011;15969;51.536;11.884;2023-01-26T10:03:31;32.83;;;20.00;;
28834;SDS011;15969;51.536;11.884;2023-01-26T10:06:12;32.20;;;19.23;;
28834;SDS011;15969;51.536;11.884;2023-01-26T10:08:51;32.07;;;19.33;;
28834;SDS011;15969;51.536;11.884;2023-01-26T10:13:54;32.37;;;19.57;;
28834;SDS011;15969;51.536;11.884;2023-01-26T10:16:26;23.60;;;15.53;;
28834;SDS011;15969;51.536;11.884;2023-01-26T10:18:57;28.27;;;17.00;;
28834;SDS011;15969;51.536;11.884;2023-01-26T10:21:32;31.67;;;18.77;;
28834;SDS011;15969;51.536;11.884;2023-01-26T10:24:02;33.73;;;20.83;;
28834;SDS011;15969;51.536;11.884;2023-01-26T10:26:30;32.77;;;19.40;;
28834;SDS011;15969;51.536;11.884;2023-01-26T10:28:58;30.37;;;18.67;;
28834;SDS011;15969;51.536;11.884;2023-01-26T10:31:28;31.73;;;20.33;;
28834;SDS011;15969;51.536;11.884;2023-01-26T10:34:00;32.57;;;19.63;;
28834;SDS011;15969;51.536;11.884;2023-01-26T10:36:40;33.67;;;20.10;;
28834;SDS011;15969;51.536;11.884;2023-01-26T10:39:09;28.20;;;17.87;;
28834;SDS011;15969;51.536;11.884;2023-01-26T10:41:37;26.60;;;16.90;;
28834;SDS011;15969;51.536;11.884;2023-01-26T10:46:36;23.80;;;15.70;;
28834;SDS011;15969;51.536;11.884;2023-01-26T10:51:34;21.63;;;14.73;;
28834;SDS011;15969;51.536;11.884;2023-01-26T10:54:23;19.97;;;13.77;;
28834;SDS011;15969;51.536;11.884;2023-01-26T10:56:58;21.77;;;14.00;;
28834;SDS011;15969;51.536;11.884;2023-01-26T11:02:22;19.10;;;13.53;;
28834;SDS011;15969;51.536;11.884;2023-01-26T11:07:33;18.47;;;13.20;;
28834;SDS011;15969;51.536;11.884;2023-01-26T11:10:18;16.87;;;12.27;;
28834;SDS011;15969;51.536;11.884;2023-01-26T11:13:19;17.97;;;13.23;;
28834;SDS011;15969;51.536;11.884;2023-01-26T11:15:49;18.33;;;13.13;;
28834;SDS011;15969;51.536;11.884;2023-01-26T11:21:36;17.40;;;11.77;;
28834;SDS011;15969;51.536;11.884;2023-01-26T11:25:01;19.73;;;13.10;;
28834;SDS011;15969;51.536;11.884;2023-01-26T11:33:15;17.80;;;12.60;;
28834;SDS011;15969;51.536;11.884;2023-01-26T11:38:41;17.23;;;12.00;;
28834;SDS011;15969;51.536;11.884;2023-01-26T11:41:22;17.60;;;11.53;;
28834;SDS011;15969;51.536;11.884;2023-01-26T11:44:23;14.17;;;10.93;;
28834;SDS011;15969;51.536;11.884;2023-01-26T11:47:25;17.03;;;11.37;;
28834;SDS011;15969;51.536;11.884;2023-01-26T11:53:00;14.97;;;11.23;;
28834;SDS011;15969;51.536;11.884;2023-01-26T11:55:55;16.73;;;12.17;;
28834;SDS011;15969;51.536;11.884;2023-01-26T12:01:44;15.77;;;11.13;;
28834;SDS011;15969;51.536;11.884;2023-01-26T12:04:22;16.77;;;11.63;;
28834;SDS011;15969;51.536;11.884;2023-01-26T12:06:49;17.83;;;11.53;;
28834;SDS011;15969;51.536;11.884;2023-01-26T12:15:21;20.93;;;13.20;;
28834;SDS011;15969;51.536;11.884;2023-01-26T12:23:15;23.10;;;13.87;;
28834;SDS011;15969;51.536;11.884;2023-01-26T12:25:46;20.50;;;13.80;;
28834;SDS011;15969;51.536;11.884;2023-01-26T12:28:19;19.03;;;12.23;;
28834;SDS011;15969;51.536;11.884;2023-01-26T12:31:03;19.47;;;12.47;;
28834;SDS011;15969;51.536;11.884;2023-01-26T12:33:58;20.37;;;13.77;;
28834;SDS011;15969;51.536;11.884;2023-01-26T12:36:32;21.30;;;14.20;;
28834;SDS011;15969;51.536;11.884;2023-01-26T12:39:12;20.23;;;12.50;;
28834;SDS011;15969;51.536;11.884;2023-01-26T12:45:06;19.93;;;11.97;;
28834;SDS011;15969;51.536;11.884;2023-01-26T12:47:51;17.77;;;12.20;;
28834;SDS011;15969;51.536;11.884;2023-01-26T12:53:22;18.60;;;12.50;;
28834;SDS011;15969;51.536;11.884;2023-01-26T12:58:39;17.17;;;10.40;;
28834;SDS011;15969;51.536;11.884;2023-01-26T13:01:09;16.20;;;11.03;;
28834;SDS011;15969;51.536;11.884;2023-01-26T13:03:39;16.43;;;10.63;;
28834;SDS011;15969;51.536;11.884;2023-01-26T13:06:21;19.13;;;12.20;;
28834;SDS011;15969;51.536;11.884;2023-01-26T13:11:40;19.13;;;12.07;;
28834;SDS011;15969;51.536;11.884;2023-01-26T13:14:22;20.07;;;12.50;;
28834;SDS011;15969;51.536;11.884;2023-01-26T13:24:49;18.07;;;11.00;;
28834;SDS011;15969;51.536;11.884;2023-01-26T13:35:16;18.63;;;11.90;;
28834;SDS011;15969;51.536;11.884;2023-01-26T13:37:51;21.63;;;12.77;;
28834;SDS011;15969;51.536;11.884;2023-01-26T13:48:44;18.33;;;11.23;;
28834;SDS011;15969;51.536;11.884;2023-01-26T13:51:21;18.40;;;10.50;;
28834;SDS011;15969;51.536;11.884;2023-01-26T13:53:56;13.80;;;8.83;;
28834;SDS011;15969;51.536;11.884;2023-01-26T13:56:24;16.17;;;9.60;;
28834;SDS011;15969;51.536;11.884;2023-01-26T13:59:16;18.80;;;9.83;;
28834;SDS011;15969;51.536;11.884;2023-01-26T14:01:54;17.87;;;9.30;;
28834;SDS011;15969;51.536;11.884;2023-01-26T14:04:21;16.10;;;8.93;;
28834;SDS011;15969;51.536;11.884;2023-01-26T14:06:57;14.73;;;8.63;;
28834;SDS011;15969;51.536;11.884;2023-01-26T14:09:30;15.40;;;8.60;;
28834;SDS011;15969;51.536;11.884;2023-01-26T14:12:05;16.00;;;9.20;;
28834;SDS011;15969;51.536;11.884;2023-01-26T14:14:32;17.53;;;9.33;;
28834;SDS011;15969;51.536;11.884;2023-01-26T14:17:05;15.87;;;9.40;;
28834;SDS011;15969;51.536;11.884;2023-01-26T14:19:32;15.07;;;9.43;;
28834;SDS011;15969;51.536;11.884;2023-01-26T14:22:11;14.80;;;8.27;;
28834;SDS011;15969;51.536;11.884;2023-01-26T14:24:37;16.57;;;9.10;;
28834;SDS011;15969;51.536;11.884;2023-01-26T14:27:05;15.87;;;9.07;;
28834;SDS011;15969;51.536;11.884;2023-01-26T14:29:44;13.93;;;8.77;;
28834;SDS011;15969;51.536;11.884;2023-01-26T14:32:13;15.13;;;9.20;;
28834;SDS011;15969;51.536;11.884;2023-01-26T14:34:49;13.43;;;8.00;;
28834;SDS011;15969;51.536;11.884;2023-01-26T14:37:18;15.77;;;9.20;;
28834;SDS011;15969;51.536;11.884;2023-01-26T14:39:43;16.03;;;7.93;;
28834;SDS011;15969;51.536;11.884;2023-01-26T14:42:15;17.20;;;9.37;;
28834;SDS011;15969;51.536;11.884;2023-01-26T14:44:43;20.37;;;10.10;;
28834;SDS011;15969;51.536;11.884;2023-01-26T14:47:17;18.43;;;11.23;;
28834;SDS011;15969;51.536;11.884;2023-01-26T14:49:53;21.37;;;14.27;;
28834;SDS011;15969;51.536;11.884;2023-01-26T14:52:29;15.47;;;9.10;;
28834;SDS011;15969;51.536;11.884;2023-01-26T14:55:06;15.47;;;9.60;;
28834;SDS011;15969;51.536;11.884;2023-01-26T14:57:53;14.53;;;9.30;;
28834;SDS011;15969;51.536;11.884;2023-01-26T15:03:13;13.50;;;8.53;;
28834;SDS011;15969;51.536;11.884;2023-01-26T15:08:39;16.00;;;9.00;;
28834;SDS011;15969;51.536;11.884;2023-01-26T15:11:22;13.83;;;8.37;;
28834;SDS011;15969;51.536;11.884;2023-01-26T15:17:01;17.53;;;8.80;;
28834;SDS011;15969;51.536;11.884;2023-01-26T15:19:39;15.90;;;8.87;;
28834;SDS011;15969;51.536;11.884;2023-01-26T15:22:15;15.00;;;9.10;;
28834;SDS011;15969;51.536;11.884;2023-01-26T15:24:58;15.40;;;9.03;;
28834;SDS011;15969;51.536;11.884;2023-01-26T15:27:50;17.07;;;8.37;;
28834;SDS011;15969;51.536;11.884;2023-01-26T15:30:25;19.63;;;9.47;;
28834;SDS011;15969;51.536;11.884;2023-01-26T15:32:54;16.67;;;9.30;;
28834;SDS011;15969;51.536;11.884;2023-01-26T15:37:49;17.43;;;9.20;;
28834;SDS011;15969;51.536;11.884;2023-01-26T15:40:33;14.60;;;8.97;;
28834;SDS011;15969;51.536;11.884;2023-01-26T15:43:15;16.80;;;9.70;;
28834;SDS011;15969;51.536;11.884;2023-01-26T15:45:50;14.03;;;9.10;;
28834;SDS011;15969;51.536;11.884;2023-01-26T15:48:22;15.80;;;9.53;;
28834;SDS011;15969;51.536;11.884;2023-01-26T15:50:49;20.17;;;9.80;;
28834;SDS011;15969;51.536;11.884;2023-01-26T15:53:15;18.53;;;9.90;;
28834;SDS011;15969;51.536;11.884;2023-01-26T15:55:44;15.77;;;9.30;;
28834;SDS011;15969;51.536;11.884;2023-01-26T15:58:16;16.03;;;9.57;;
28834;SDS011;15969;51.536;11.884;2023-01-26T16:00:42;15.43;;;9.27;;
28834;SDS011;15969;51.536;11.884;2023-01-26T16:03:12;18.93;;;10.73;;
28834;SDS011;15969;51.536;11.884;2023-01-26T16:05:41;19.97;;;10.70;;
28834;SDS011;15969;51.536;11.884;2023-01-26T16:08:08;18.53;;;11.00;;
28834;SDS011;15969;51.536;11.884;2023-01-26T16:10:36;20.73;;;10.30;;
28834;SDS011;15969;51.536;11.884;2023-01-26T16:13:08;20.77;;;10.83;;
28834;SDS011;15969;51.536;11.884;2023-01-26T16:18:10;16.07;;;9.63;;
28834;SDS011;15969;51.536;11.884;2023-01-26T16:20:37;17.90;;;10.63;;
28834;SDS011;15969;51.536;11.884;2023-01-26T16:23:14;18.77;;;9.83;;
28834;SDS011;15969;51.536;11.884;2023-01-26T16:25:47;18.50;;;10.40;;
28834;SDS011;15969;51.536;11.884;2023-01-26T16:28:13;18.60;;;11.40;;
28834;SDS011;15969;51.536;11.884;2023-01-26T16:30:40;19.17;;;10.60;;
28834;SDS011;15969;51.536;11.884;2023-01-26T16:33:12;21.30;;;11.80;;